sensor_id;sensor_type;location;lat;lon;timestamp;temperature;humidity
52016;DHT22;38032;53.326;6.472;2023-06-26T00:01:17;23.00;99.90
52016;DHT22;38032;53.326;6.472;2023-06-26T00:03:47;23.00;99.90
52016;DHT22;38032;53.326;6.472;2023-06-26T00:06:13;23.00;99.90
52016;DHT22;38032;53.326;6.472;2023-06-26T00:08:39;23.00;99.90
52016;DHT22;38032;53.326;6.472;2023-06-26T00:11:05;23.00;99.90
52016;DHT22;38032;53.326;6.472;2023-06-26T00:13:31;23.00;99.90
52016;DHT22;38032;53.326;6.472;2023-06-26T00:15:57;22.90;99.90
52016;DHT22;38032;53.326;6.472;2023-06-26T00:18:23;22.90;99.90
52016;DHT22;38032;53.326;6.472;2023-06-26T00:20:49;22.90;99.90
52016;DHT22;38032;53.326;6.472;2023-06-26T00:23:16;22.90;99.90
52016;DHT22;38032;53.326;6.472;2023-06-26T00:25:43;22.90;99.90
52016;DHT22;38032;53.326;6.472;2023-06-26T00:28:09;22.90;99.90
52016;DHT22;38032;53.326;6.472;2023-06-26T00:30:35;22.80;99.90
52016;DHT22;38032;53.326;6.472;2023-06-26T00:33:01;22.80;99.90
52016;DHT22;38032;53.326;6.472;2023-06-26T00:35:27;22.80;99.90
52016;DHT22;38032;53.326;6.472;2023-06-26T00:37:53;22.70;99.90
52016;DHT22;38032;53.326;6.472;2023-06-26T00:40:19;22.80;99.90
52016;DHT22;38032;53.326;6.472;2023-06-26T00:42:45;22.70;99.90
52016;DHT22;38032;53.326;6.472;2023-06-26T00:45:11;22.70;99.90
52016;DHT22;38032;53.326;6.472;2023-06-26T00:47:37;22.80;99.90
52016;DHT22;38032;53.326;6.472;2023-06-26T00:50:04;22.70;99.90
52016;DHT22;38032;53.326;6.472;2023-06-26T00:52:31;22.70;99.90
52016;DHT22;38032;53.326;6.472;2023-06-26T00:54:58;22.70;99.90
52016;DHT22;38032;53.326;6.472;2023-06-26T00:57:24;22.70;99.90
52016;DHT22;38032;53.326;6.472;2023-06-26T00:59:50;22.70;99.90
52016;DHT22;38032;53.326;6.472;2023-06-26T01:02:16;22.60;99.90
52016;DHT22;38032;53.326;6.472;2023-06-26T01:04:47;22.60;99.90
52016;DHT22;38032;53.326;6.472;2023-06-26T01:07:15;22.60;99.90
52016;DHT22;38032;53.326;6.472;2023-06-26T01:09:42;22.60;99.90
52016;DHT22;38032;53.326;6.472;2023-06-26T01:12:08;22.60;99.90
52016;DHT22;38032;53.326;6.472;2023-06-26T01:14:34;22.60;99.90
52016;DHT22;38032;53.326;6.472;2023-06-26T01:17:02;22.60;99.90
52016;DHT22;38032;53.326;6.472;2023-06-26T01:19:30;22.60;99.90
52016;DHT22;38032;53.326;6.472;2023-06-26T01:22:13;22.60;99.90
52016;DHT22;38032;53.326;6.472;2023-06-26T01:24:52;22.60;99.90
52016;DHT22;38032;53.326;6.472;2023-06-26T01:27:21;22.60;99.90
52016;DHT22;38032;53.326;6.472;2023-06-26T01:29:49;22.50;99.90
52016;DHT22;38032;53.326;6.472;2023-06-26T01:32:15;22.50;99.90
52016;DHT22;38032;53.326;6.472;2023-06-26T01:34:42;22.50;99.90
52016;DHT22;38032;53.326;6.472;2023-06-26T01:37:09;22.50;99.90
52016;DHT22;38032;53.326;6.472;2023-06-26T01:39:35;22.50;99.90
52016;DHT22;38032;53.326;6.472;2023-06-26T01:42:01;22.50;99.90
52016;DHT22;38032;53.326;6.472;2023-06-26T01:44:29;22.50;99.90
52016;DHT22;38032;53.326;6.472;2023-06-26T01:47:03;22.50;99.90
52016;DHT22;38032;53.326;6.472;2023-06-26T01:52:03;22.50;99.90
52016;DHT22;38032;53.326;6.472;2023-06-26T01:54:37;22.50;99.90
52016;DHT22;38032;53.326;6.472;2023-06-26T01:57:05;22.50;99.90
52016;DHT22;38032;53.326;6.472;2023-06-26T01:59:33;22.50;99.90
52016;DHT22;38032;53.326;6.472;2023-06-26T02:02:01;22.50;99.90
52016;DHT22;38032;53.326;6.472;2023-06-26T02:04:27;22.50;99.90
52016;DHT22;38032;53.326;6.472;2023-06-26T02:06:53;22.50;99.90
52016;DHT22;38032;53.326;6.472;2023-06-26T02:09:20;22.50;99.90
52016;DHT22;38032;53.326;6.472;2023-06-26T02:11:46;22.50;99.90
52016;DHT22;38032;53.326;6.472;2023-06-26T02:14:12;22.50;99.90
52016;DHT22;38032;53.326;6.472;2023-06-26T02:16:38;22.40;99.90
52016;DHT22;38032;53.326;6.472;2023-06-26T02:19:04;22.40;99.90
52016;DHT22;38032;53.326;6.472;2023-06-26T02:21:29;22.40;99.90
52016;DHT22;38032;53.326;6.472;2023-06-26T02:23:55;22.30;99.90
52016;DHT22;38032;53.326;6.472;2023-06-26T02:26:21;22.30;99.90
52016;DHT22;38032;53.326;6.472;2023-06-26T02:28:48;22.20;99.90
52016;DHT22;38032;53.326;6.472;2023-06-26T02:31:13;22.20;99.90
52016;DHT22;38032;53.326;6.472;2023-06-26T02:33:41;22.20;99.90
52016;DHT22;38032;53.326;6.472;2023-06-26T02:36:07;22.10;99.90
52016;DHT22;38032;53.326;6.472;2023-06-26T02:38:33;22.00;99.90
52016;DHT22;38032;53.326;6.472;2023-06-26T02:40:59;22.00;99.90
52016;DHT22;38032;53.326;6.472;2023-06-26T02:43:25;22.00;99.90
52016;DHT22;38032;53.326;6.472;2023-06-26T02:45:50;22.00;99.90
52016;DHT22;38032;53.326;6.472;2023-06-26T02:48:16;21.90;99.90
52016;DHT22;38032;53.326;6.472;2023-06-26T02:50:42;21.90;99.90
52016;DHT22;38032;53.326;6.472;2023-06-26T02:53:12;21.90;99.90
52016;DHT22;38032;53.326;6.472;2023-06-26T02:55:37;21.90;99.90
52016;DHT22;38032;53.326;6.472;2023-06-26T02:58:03;21.90;99.90
52016;DHT22;38032;53.326;6.472;2023-06-26T03:00:30;21.80;99.90
52016;DHT22;38032;53.326;6.472;2023-06-26T03:02:56;21.70;99.90
52016;DHT22;38032;53.326;6.472;2023-06-26T03:05:22;21.70;99.90
52016;DHT22;38032;53.326;6.472;2023-06-26T03:07:49;21.70;99.90
52016;DHT22;38032;53.326;6.472;2023-06-26T03:10:15;21.70;99.90
52016;DHT22;38032;53.326;6.472;2023-06-26T03:12:41;21.60;99.90
52016;DHT22;38032;53.326;6.472;2023-06-26T03:15:07;21.60;99.90
52016;DHT22;38032;53.326;6.472;2023-06-26T03:17:33;21.60;99.90
52016;DHT22;38032;53.326;6.472;2023-06-26T03:19:59;21.50;99.90
52016;DHT22;38032;53.326;6.472;2023-06-26T03:22:25;21.60;99.90
52016;DHT22;38032;53.326;6.472;2023-06-26T03:24:51;21.50;99.90
52016;DHT22;38032;53.326;6.472;2023-06-26T03:27:17;21.60;99.90
52016;DHT22;38032;53.326;6.472;2023-06-26T03:29:43;21.60;99.90
52016;DHT22;38032;53.326;6.472;2023-06-26T03:32:09;21.60;99.90
52016;DHT22;38032;53.326;6.472;2023-06-26T03:34:35;21.60;99.90
52016;DHT22;38032;53.326;6.472;2023-06-26T03:37:00;21.60;99.90
52016;DHT22;38032;53.326;6.472;2023-06-26T03:39:27;21.60;99.90
52016;DHT22;38032;53.326;6.472;2023-06-26T03:41:53;21.60;99.90
52016;DHT22;38032;53.326;6.472;2023-06-26T03:44:22;21.60;99.90
52016;DHT22;38032;53.326;6.472;2023-06-26T03:46:48;21.60;99.90
52016;DHT22;38032;53.326;6.472;2023-06-26T03:49:14;21.60;99.90
52016;DHT22;38032;53.326;6.472;2023-06-26T03:51:40;21.60;99.90
52016;DHT22;38032;53.326;6.472;2023-06-26T03:54:05;21.60;99.90
52016;DHT22;38032;53.326;6.472;2023-06-26T03:56:31;21.60;99.90
52016;DHT22;38032;53.326;6.472;2023-06-26T03:58:57;21.70;99.90
52016;DHT22;38032;53.326;6.472;2023-06-26T04:01:23;21.60;99.90
52016;DHT22;38032;53.326;6.472;2023-06-26T04:03:49;21.70;99.90
52016;DHT22;38032;53.326;6.472;2023-06-26T04:06:15;21.60;99.90
52016;DHT22;38032;53.326;6.472;2023-06-26T04:08:41;21.60;99.90
52016;DHT22;38032;53.326;6.472;2023-06-26T04:11:07;21.60;99.90
52016;DHT22;38032;53.326;6.472;2023-06-26T04:13:33;21.70;99.90
52016;DHT22;38032;53.326;6.472;2023-06-26T04:15:59;21.60;99.90
52016;DHT22;38032;53.326;6.472;2023-06-26T04:18:24;21.60;99.90
52016;DHT22;38032;53.326;6.472;2023-06-26T04:21:11;21.60;99.90
52016;DHT22;38032;53.326;6.472;2023-06-26T04:23:38;21.60;99.90
52016;DHT22;38032;53.326;6.472;2023-06-26T04:26:05;21.70;99.90
52016;DHT22;38032;53.326;6.472;2023-06-26T04:28:32;21.80;99.90
52016;DHT22;38032;53.326;6.472;2023-06-26T04:30:59;21.80;99.90
52016;DHT22;38032;53.326;6.472;2023-06-26T04:33:26;21.90;99.90
52016;DHT22;38032;53.326;6.472;2023-06-26T04:35:53;21.90;99.90
52016;DHT22;38032;53.326;6.472;2023-06-26T04:38:19;21.90;99.90
52016;DHT22;38032;53.326;6.472;2023-06-26T04:40:46;22.00;99.90
52016;DHT22;38032;53.326;6.472;2023-06-26T04:43:12;22.10;99.90
52016;DHT22;38032;53.326;6.472;2023-06-26T04:45:38;22.10;99.90
52016;DHT22;38032;53.326;6.472;2023-06-26T04:48:04;22.10;99.90
52016;DHT22;38032;53.326;6.472;2023-06-26T04:50:31;22.10;99.90
52016;DHT22;38032;53.326;6.472;2023-06-26T04:52:59;22.10;99.90
52016;DHT22;38032;53.326;6.472;2023-06-26T04:55:25;22.10;99.90
52016;DHT22;38032;53.326;6.472;2023-06-26T04:57:51;22.10;99.90
52016;DHT22;38032;53.326;6.472;2023-06-26T05:00:18;22.10;99.90
52016;DHT22;38032;53.326;6.472;2023-06-26T05:02:44;22.10;99.90
52016;DHT22;38032;53.326;6.472;2023-06-26T05:05:10;22.10;99.90
52016;DHT22;38032;53.326;6.472;2023-06-26T05:07:36;22.00;99.90
52016;DHT22;38032;53.326;6.472;2023-06-26T05:10:02;22.10;99.90
52016;DHT22;38032;53.326;6.472;2023-06-26T05:12:28;22.00;99.90
52016;DHT22;38032;53.326;6.472;2023-06-26T05:14:54;22.00;99.90
52016;DHT22;38032;53.326;6.472;2023-06-26T05:17:20;22.00;99.90
52016;DHT22;38032;53.326;6.472;2023-06-26T05:19:46;21.90;99.90
52016;DHT22;38032;53.326;6.472;2023-06-26T05:22:13;21.90;99.90
52016;DHT22;38032;53.326;6.472;2023-06-26T05:24:39;21.90;99.90
52016;DHT22;38032;53.326;6.472;2023-06-26T05:27:06;21.80;99.90
52016;DHT22;38032;53.326;6.472;2023-06-26T05:29:33;21.80;99.90
52016;DHT22;38032;53.326;6.472;2023-06-26T05:31:59;21.80;99.90
52016;DHT22;38032;53.326;6.472;2023-06-26T05:34:26;21.80;99.90
52016;DHT22;38032;53.326;6.472;2023-06-26T05:36:59;21.70;99.90
52016;DHT22;38032;53.326;6.472;2023-06-26T05:39:25;21.70;99.90
52016;DHT22;38032;53.326;6.472;2023-06-26T05:41:51;21.70;99.90
52016;DHT22;38032;53.326;6.472;2023-06-26T05:44:17;21.70;99.90
52016;DHT22;38032;53.326;6.472;2023-06-26T05:46:45;21.70;99.90
52016;DHT22;38032;53.326;6.472;2023-06-26T05:49:11;21.70;99.90
52016;DHT22;38032;53.326;6.472;2023-06-26T05:51:37;21.70;99.90
52016;DHT22;38032;53.326;6.472;2023-06-26T05:54:03;21.60;99.90
52016;DHT22;38032;53.326;6.472;2023-06-26T05:56:30;21.60;99.90
52016;DHT22;38032;53.326;6.472;2023-06-26T05:58:56;21.60;99.90
52016;DHT22;38032;53.326;6.472;2023-06-26T06:01:22;21.70;99.90
52016;DHT22;38032;53.326;6.472;2023-06-26T06:03:50;21.80;99.90
52016;DHT22;38032;53.326;6.472;2023-06-26T06:06:16;22.00;99.90
52016;DHT22;38032;53.326;6.472;2023-06-26T06:08:42;22.10;99.90
52016;DHT22;38032;53.326;6.472;2023-06-26T06:11:08;22.20;99.90
52016;DHT22;38032;53.326;6.472;2023-06-26T06:13:33;22.30;99.90
52016;DHT22;38032;53.326;6.472;2023-06-26T06:15:59;22.30;99.90
52016;DHT22;38032;53.326;6.472;2023-06-26T06:18:26;22.30;99.90
52016;DHT22;38032;53.326;6.472;2023-06-26T06:20:51;22.40;99.90
52016;DHT22;38032;53.326;6.472;2023-06-26T06:23:17;22.40;99.90
52016;DHT22;38032;53.326;6.472;2023-06-26T06:25:43;22.30;99.90
52016;DHT22;38032;53.326;6.472;2023-06-26T06:28:09;22.40;99.90
52016;DHT22;38032;53.326;6.472;2023-06-26T06:30:35;22.40;99.90
52016;DHT22;38032;53.326;6.472;2023-06-26T06:33:01;22.40;99.90
52016;DHT22;38032;53.326;6.472;2023-06-26T06:35:28;22.40;99.90
52016;DHT22;38032;53.326;6.472;2023-06-26T06:37:53;22.40;99.90
52016;DHT22;38032;53.326;6.472;2023-06-26T06:40:19;22.40;99.90
52016;DHT22;38032;53.326;6.472;2023-06-26T06:42:48;22.60;99.90
52016;DHT22;38032;53.326;6.472;2023-06-26T06:45:14;22.70;99.90
52016;DHT22;38032;53.326;6.472;2023-06-26T06:47:39;22.80;99.90
52016;DHT22;38032;53.326;6.472;2023-06-26T06:50:06;22.80;99.90
52016;DHT22;38032;53.326;6.472;2023-06-26T06:52:36;22.80;99.90
52016;DHT22;38032;53.326;6.472;2023-06-26T06:55:03;22.80;99.90
52016;DHT22;38032;53.326;6.472;2023-06-26T06:57:37;22.80;99.90
52016;DHT22;38032;53.326;6.472;2023-06-26T07:00:05;22.70;99.90
52016;DHT22;38032;53.326;6.472;2023-06-26T07:02:35;22.70;99.90
52016;DHT22;38032;53.326;6.472;2023-06-26T07:05:02;22.70;99.90
52016;DHT22;38032;53.326;6.472;2023-06-26T07:07:30;22.70;99.90
52016;DHT22;38032;53.326;6.472;2023-06-26T07:10:00;22.70;99.90
52016;DHT22;38032;53.326;6.472;2023-06-26T07:12:27;22.70;99.90
52016;DHT22;38032;53.326;6.472;2023-06-26T07:14:53;22.70;99.90
52016;DHT22;38032;53.326;6.472;2023-06-26T07:17:20;22.70;99.90
52016;DHT22;38032;53.326;6.472;2023-06-26T07:19:47;22.80;99.90
52016;DHT22;38032;53.326;6.472;2023-06-26T07:22:13;22.70;99.90
52016;DHT22;38032;53.326;6.472;2023-06-26T07:24:39;22.80;99.90
52016;DHT22;38032;53.326;6.472;2023-06-26T07:27:05;22.80;99.90
52016;DHT22;38032;53.326;6.472;2023-06-26T07:29:31;22.80;99.90
52016;DHT22;38032;53.326;6.472;2023-06-26T07:31:56;22.80;99.90
52016;DHT22;38032;53.326;6.472;2023-06-26T07:34:22;22.80;99.90
52016;DHT22;38032;53.326;6.472;2023-06-26T07:36:48;22.90;99.90
52016;DHT22;38032;53.326;6.472;2023-06-26T07:39:15;22.90;99.90
52016;DHT22;38032;53.326;6.472;2023-06-26T07:41:40;22.90;99.90
52016;DHT22;38032;53.326;6.472;2023-06-26T07:44:07;22.90;99.90
52016;DHT22;38032;53.326;6.472;2023-06-26T07:46:32;22.90;99.90
52016;DHT22;38032;53.326;6.472;2023-06-26T07:48:58;23.00;99.90
52016;DHT22;38032;53.326;6.472;2023-06-26T07:51:25;23.00;99.90
52016;DHT22;38032;53.326;6.472;2023-06-26T07:53:51;23.00;99.90
52016;DHT22;38032;53.326;6.472;2023-06-26T07:56:17;23.00;99.90
52016;DHT22;38032;53.326;6.472;2023-06-26T07:58:42;23.00;99.90
52016;DHT22;38032;53.326;6.472;2023-06-26T08:01:08;23.10;99.90
52016;DHT22;38032;53.326;6.472;2023-06-26T08:03:34;23.10;99.90
52016;DHT22;38032;53.326;6.472;2023-06-26T08:06:00;23.10;99.90
52016;DHT22;38032;53.326;6.472;2023-06-26T08:08:26;23.10;99.90
52016;DHT22;38032;53.326;6.472;2023-06-26T08:10:52;23.20;99.90
52016;DHT22;38032;53.326;6.472;2023-06-26T08:13:18;23.20;99.90
52016;DHT22;38032;53.326;6.472;2023-06-26T08:15:44;23.20;99.90
52016;DHT22;38032;53.326;6.472;2023-06-26T08:18:10;23.30;99.90
52016;DHT22;38032;53.326;6.472;2023-06-26T08:20:36;23.20;99.90
52016;DHT22;38032;53.326;6.472;2023-06-26T08:23:04;23.30;99.90
52016;DHT22;38032;53.326;6.472;2023-06-26T08:25:30;23.40;99.90
52016;DHT22;38032;53.326;6.472;2023-06-26T08:27:56;23.30;99.90
52016;DHT22;38032;53.326;6.472;2023-06-26T08:30:22;23.40;99.90
52016;DHT22;38032;53.326;6.472;2023-06-26T08:32:50;23.40;99.90
52016;DHT22;38032;53.326;6.472;2023-06-26T08:35:16;23.40;99.90
52016;DHT22;38032;53.326;6.472;2023-06-26T08:37:42;23.50;99.90
52016;DHT22;38032;53.326;6.472;2023-06-26T08:40:09;23.50;99.90
52016;DHT22;38032;53.326;6.472;2023-06-26T08:42:35;23.60;99.90
52016;DHT22;38032;53.326;6.472;2023-06-26T08:45:01;23.60;99.90
52016;DHT22;38032;53.326;6.472;2023-06-26T08:47:28;23.70;99.90
52016;DHT22;38032;53.326;6.472;2023-06-26T08:50:00;23.70;99.90
52016;DHT22;38032;53.326;6.472;2023-06-26T08:52:35;23.60;99.90
52016;DHT22;38032;53.326;6.472;2023-06-26T08:55:02;23.70;99.90
52016;DHT22;38032;53.326;6.472;2023-06-26T08:57:32;23.80;99.90
52016;DHT22;38032;53.326;6.472;2023-06-26T08:59:58;23.80;99.90
52016;DHT22;38032;53.326;6.472;2023-06-26T09:02:25;23.90;99.90
52016;DHT22;38032;53.326;6.472;2023-06-26T09:04:51;23.80;99.90
52016;DHT22;38032;53.326;6.472;2023-06-26T09:07:17;23.80;99.90
52016;DHT22;38032;53.326;6.472;2023-06-26T09:09:43;23.90;99.90
52016;DHT22;38032;53.326;6.472;2023-06-26T09:12:09;24.00;99.90
52016;DHT22;38032;53.326;6.472;2023-06-26T09:14:37;24.10;99.60
52016;DHT22;38032;53.326;6.472;2023-06-26T09:17:03;24.10;99.30
52016;DHT22;38032;53.326;6.472;2023-06-26T09:19:29;24.10;98.80
52016;DHT22;38032;53.326;6.472;2023-06-26T09:21:55;24.60;98.30
52016;DHT22;38032;53.326;6.472;2023-06-26T09:24:22;25.20;97.20
52016;DHT22;38032;53.326;6.472;2023-06-26T09:26:49;25.90;95.50
52016;DHT22;38032;53.326;6.472;2023-06-26T09:29:15;27.10;92.80
52016;DHT22;38032;53.326;6.472;2023-06-26T09:31:44;27.90;90.10
52016;DHT22;38032;53.326;6.472;2023-06-26T09:34:10;28.30;86.60
52016;DHT22;38032;53.326;6.472;2023-06-26T09:36:36;28.70;83.50
52016;DHT22;38032;53.326;6.472;2023-06-26T09:39:04;28.50;81.50
52016;DHT22;38032;53.326;6.472;2023-06-26T09:41:33;28.10;81.50
52016;DHT22;38032;53.326;6.472;2023-06-26T09:44:02;28.30;80.20
52016;DHT22;38032;53.326;6.472;2023-06-26T09:46:29;28.70;79.60
52016;DHT22;38032;53.326;6.472;2023-06-26T09:49:04;28.60;77.90
52016;DHT22;38032;53.326;6.472;2023-06-26T09:51:31;28.50;77.30
52016;DHT22;38032;53.326;6.472;2023-06-26T09:53:59;28.50;77.40
52016;DHT22;38032;53.326;6.472;2023-06-26T09:56:26;28.50;77.10
52016;DHT22;38032;53.326;6.472;2023-06-26T09:58:55;28.20;76.80
52016;DHT22;38032;53.326;6.472;2023-06-26T10:01:23;28.20;76.50
52016;DHT22;38032;53.326;6.472;2023-06-26T10:03:49;28.80;75.50
52016;DHT22;38032;53.326;6.472;2023-06-26T10:06:19;28.60;74.70
52016;DHT22;38032;53.326;6.472;2023-06-26T10:08:45;28.20;74.80
52016;DHT22;38032;53.326;6.472;2023-06-26T10:11:16;27.90;74.90
52016;DHT22;38032;53.326;6.472;2023-06-26T10:13:45;28.20;74.60
52016;DHT22;38032;53.326;6.472;2023-06-26T10:16:18;28.00;74.40
52016;DHT22;38032;53.326;6.472;2023-06-26T10:18:47;27.80;74.70
52016;DHT22;38032;53.326;6.472;2023-06-26T10:21:14;27.70;74.90
52016;DHT22;38032;53.326;6.472;2023-06-26T10:23:42;27.40;75.10
52016;DHT22;38032;53.326;6.472;2023-06-26T10:26:09;27.10;75.50
52016;DHT22;38032;53.326;6.472;2023-06-26T10:28:37;27.10;75.80
52016;DHT22;38032;53.326;6.472;2023-06-26T10:31:05;27.40;76.20
52016;DHT22;38032;53.326;6.472;2023-06-26T10:33:33;27.60;75.70
52016;DHT22;38032;53.326;6.472;2023-06-26T10:36:20;27.70;75.30
52016;DHT22;38032;53.326;6.472;2023-06-26T10:38:54;27.40;74.50
52016;DHT22;38032;53.326;6.472;2023-06-26T10:41:22;27.10;75.20
52016;DHT22;38032;53.326;6.472;2023-06-26T10:44:04;26.90;75.50
52016;DHT22;38032;53.326;6.472;2023-06-26T10:46:51;26.90;75.70
52016;DHT22;38032;53.326;6.472;2023-06-26T10:49:19;27.00;75.30
52016;DHT22;38032;53.326;6.472;2023-06-26T10:51:48;26.90;75.30
52016;DHT22;38032;53.326;6.472;2023-06-26T10:54:16;26.60;75.30
52016;DHT22;38032;53.326;6.472;2023-06-26T10:56:46;26.40;75.80
52016;DHT22;38032;53.326;6.472;2023-06-26T10:59:21;26.20;76.30
52016;DHT22;38032;53.326;6.472;2023-06-26T11:01:55;26.20;76.80
52016;DHT22;38032;53.326;6.472;2023-06-26T11:07:19;26.20;78.00
52016;DHT22;38032;53.326;6.472;2023-06-26T11:12:41;26.20;78.50
52016;DHT22;38032;53.326;6.472;2023-06-26T11:15:09;26.30;78.20
52016;DHT22;38032;53.326;6.472;2023-06-26T11:17:36;26.30;77.80
52016;DHT22;38032;53.326;6.472;2023-06-26T11:20:05;26.30;78.30
52016;DHT22;38032;53.326;6.472;2023-06-26T11:22:32;26.20;77.30
52016;DHT22;38032;53.326;6.472;2023-06-26T11:25:00;26.10;76.80
52016;DHT22;38032;53.326;6.472;2023-06-26T11:27:37;25.90;76.80
52016;DHT22;38032;53.326;6.472;2023-06-26T11:30:04;25.90;77.00
52016;DHT22;38032;53.326;6.472;2023-06-26T11:32:31;25.80;76.90
52016;DHT22;38032;53.326;6.472;2023-06-26T11:34:59;25.70;76.90
52016;DHT22;38032;53.326;6.472;2023-06-26T11:37:25;25.60;77.00
52016;DHT22;38032;53.326;6.472;2023-06-26T11:39:51;25.70;77.00
52016;DHT22;38032;53.326;6.472;2023-06-26T11:42:19;25.80;77.30
52016;DHT22;38032;53.326;6.472;2023-06-26T11:44:46;25.90;77.30
52016;DHT22;38032;53.326;6.472;2023-06-26T11:47:14;25.90;77.10
52016;DHT22;38032;53.326;6.472;2023-06-26T11:49:43;25.90;76.90
52016;DHT22;38032;53.326;6.472;2023-06-26T11:52:09;25.80;76.80
52016;DHT22;38032;53.326;6.472;2023-06-26T11:54:35;25.70;76.80
52016;DHT22;38032;53.326;6.472;2023-06-26T11:57:00;25.60;76.80
52016;DHT22;38032;53.326;6.472;2023-06-26T11:59:37;25.60;76.80
52016;DHT22;38032;53.326;6.472;2023-06-26T12:02:07;25.50;76.50
52016;DHT22;38032;53.326;6.472;2023-06-26T12:04:37;25.50;76.60
52016;DHT22;38032;53.326;6.472;2023-06-26T12:07:06;25.50;76.70
52016;DHT22;38032;53.326;6.472;2023-06-26T12:09:38;25.50;76.60
52016;DHT22;38032;53.326;6.472;2023-06-26T12:12:05;25.50;76.10
52016;DHT22;38032;53.326;6.472;2023-06-26T12:14:31;25.50;75.70
52016;DHT22;38032;53.326;6.472;2023-06-26T12:17:04;25.50;75.20
52016;DHT22;38032;53.326;6.472;2023-06-26T12:19:31;25.40;75.30
52016;DHT22;38032;53.326;6.472;2023-06-26T12:21:58;25.40;74.80
52016;DHT22;38032;53.326;6.472;2023-06-26T12:24:24;25.40;74.20
52016;DHT22;38032;53.326;6.472;2023-06-26T12:26:53;25.40;74.40
52016;DHT22;38032;53.326;6.472;2023-06-26T12:29:22;25.50;75.20
52016;DHT22;38032;53.326;6.472;2023-06-26T12:31:54;25.40;75.80
52016;DHT22;38032;53.326;6.472;2023-06-26T12:34:27;25.30;75.80
52016;DHT22;38032;53.326;6.472;2023-06-26T12:36:53;25.30;75.90
52016;DHT22;38032;53.326;6.472;2023-06-26T12:39:20;25.20;76.50
52016;DHT22;38032;53.326;6.472;2023-06-26T12:41:49;25.30;76.10
52016;DHT22;38032;53.326;6.472;2023-06-26T12:44:18;25.20;76.20
52016;DHT22;38032;53.326;6.472;2023-06-26T12:46:47;25.20;76.20
52016;DHT22;38032;53.326;6.472;2023-06-26T12:49:14;25.20;76.60
52016;DHT22;38032;53.326;6.472;2023-06-26T12:51:40;25.30;76.40
52016;DHT22;38032;53.326;6.472;2023-06-26T12:54:06;25.20;76.00
52016;DHT22;38032;53.326;6.472;2023-06-26T12:56:32;25.20;75.70
52016;DHT22;38032;53.326;6.472;2023-06-26T12:58:58;25.20;75.70
52016;DHT22;38032;53.326;6.472;2023-06-26T13:01:24;25.30;75.60
52016;DHT22;38032;53.326;6.472;2023-06-26T13:03:50;25.20;75.70
52016;DHT22;38032;53.326;6.472;2023-06-26T13:06:17;25.20;76.10
52016;DHT22;38032;53.326;6.472;2023-06-26T13:08:43;25.10;76.00
52016;DHT22;38032;53.326;6.472;2023-06-26T13:11:09;24.90;76.20
52016;DHT22;38032;53.326;6.472;2023-06-26T13:13:35;24.80;76.50
52016;DHT22;38032;53.326;6.472;2023-06-26T13:16:01;24.70;76.70
52016;DHT22;38032;53.326;6.472;2023-06-26T13:18:27;24.60;76.90
52016;DHT22;38032;53.326;6.472;2023-06-26T13:20:53;24.60;77.20
52016;DHT22;38032;53.326;6.472;2023-06-26T13:23:19;24.60;77.30
52016;DHT22;38032;53.326;6.472;2023-06-26T13:25:45;24.70;77.40
52016;DHT22;38032;53.326;6.472;2023-06-26T13:28:11;24.70;77.60
52016;DHT22;38032;53.326;6.472;2023-06-26T13:30:37;24.70;77.40
52016;DHT22;38032;53.326;6.472;2023-06-26T13:33:03;24.60;77.30
52016;DHT22;38032;53.326;6.472;2023-06-26T13:35:29;24.60;77.30
52016;DHT22;38032;53.326;6.472;2023-06-26T13:37:55;24.40;77.40
52016;DHT22;38032;53.326;6.472;2023-06-26T13:40:21;24.40;77.70
52016;DHT22;38032;53.326;6.472;2023-06-26T13:42:47;24.40;78.50
52016;DHT22;38032;53.326;6.472;2023-06-26T13:45:13;24.40;79.30
52016;DHT22;38032;53.326;6.472;2023-06-26T13:47:39;24.50;79.70
52016;DHT22;38032;53.326;6.472;2023-06-26T13:50:08;24.50;80.10
52016;DHT22;38032;53.326;6.472;2023-06-26T13:52:35;24.50;80.60
52016;DHT22;38032;53.326;6.472;2023-06-26T13:55:01;24.40;81.20
52016;DHT22;38032;53.326;6.472;2023-06-26T13:57:31;24.40;81.40
52016;DHT22;38032;53.326;6.472;2023-06-26T13:59:57;24.30;81.70
52016;DHT22;38032;53.326;6.472;2023-06-26T14:02:23;24.10;82.00
52016;DHT22;38032;53.326;6.472;2023-06-26T14:04:49;24.00;82.40
52016;DHT22;38032;53.326;6.472;2023-06-26T14:07:15;23.90;82.70
52016;DHT22;38032;53.326;6.472;2023-06-26T14:09:41;23.80;83.00
52016;DHT22;38032;53.326;6.472;2023-06-26T14:12:08;23.90;83.10
52016;DHT22;38032;53.326;6.472;2023-06-26T14:14:34;24.00;82.80
52016;DHT22;38032;53.326;6.472;2023-06-26T14:17:00;24.00;82.60
52016;DHT22;38032;53.326;6.472;2023-06-26T14:19:26;24.00;82.60
52016;DHT22;38032;53.326;6.472;2023-06-26T14:21:52;24.00;82.80
52016;DHT22;38032;53.326;6.472;2023-06-26T14:24:18;24.00;83.00
52016;DHT22;38032;53.326;6.472;2023-06-26T14:26:44;24.10;83.10
52016;DHT22;38032;53.326;6.472;2023-06-26T14:29:10;24.00;83.00
52016;DHT22;38032;53.326;6.472;2023-06-26T14:31:36;24.00;83.10
52016;DHT22;38032;53.326;6.472;2023-06-26T14:34:02;24.00;83.30
52016;DHT22;38032;53.326;6.472;2023-06-26T14:36:28;24.00;83.60
52016;DHT22;38032;53.326;6.472;2023-06-26T14:38:56;24.00;84.10
52016;DHT22;38032;53.326;6.472;2023-06-26T14:41:22;24.00;84.20
52016;DHT22;38032;53.326;6.472;2023-06-26T14:43:48;23.90;84.30
52016;DHT22;38032;53.326;6.472;2023-06-26T14:46:14;23.80;84.30
52016;DHT22;38032;53.326;6.472;2023-06-26T14:48:40;23.70;84.50
52016;DHT22;38032;53.326;6.472;2023-06-26T14:51:06;23.60;84.60
52016;DHT22;38032;53.326;6.472;2023-06-26T14:53:32;23.50;84.70
52016;DHT22;38032;53.326;6.472;2023-06-26T14:55:58;23.40;85.10
52016;DHT22;38032;53.326;6.472;2023-06-26T14:58:23;23.40;85.20
52016;DHT22;38032;53.326;6.472;2023-06-26T15:00:49;23.40;85.60
52016;DHT22;38032;53.326;6.472;2023-06-26T15:03:15;23.40;85.40
52016;DHT22;38032;53.326;6.472;2023-06-26T15:05:41;23.40;85.40
52016;DHT22;38032;53.326;6.472;2023-06-26T15:08:07;23.40;85.40
52016;DHT22;38032;53.326;6.472;2023-06-26T15:10:35;23.40;85.70
52016;DHT22;38032;53.326;6.472;2023-06-26T15:13:01;23.40;85.90
52016;DHT22;38032;53.326;6.472;2023-06-26T15:15:27;23.50;86.30
52016;DHT22;38032;53.326;6.472;2023-06-26T15:17:53;23.60;86.40
52016;DHT22;38032;53.326;6.472;2023-06-26T15:20:19;23.70;85.90
52016;DHT22;38032;53.326;6.472;2023-06-26T15:22:44;23.70;85.40
52016;DHT22;38032;53.326;6.472;2023-06-26T15:25:10;23.70;85.50
52016;DHT22;38032;53.326;6.472;2023-06-26T15:27:36;23.80;84.40
52016;DHT22;38032;53.326;6.472;2023-06-26T15:30:02;23.90;84.10
52016;DHT22;38032;53.326;6.472;2023-06-26T15:32:28;23.80;83.40
52016;DHT22;38032;53.326;6.472;2023-06-26T15:34:54;23.80;83.40
52016;DHT22;38032;53.326;6.472;2023-06-26T15:37:20;23.80;83.20